This is the latest recevied weather packets stored in our database for station/object KN6KDD. If no packets are shown the sender has not sent any weather packets the latest 10 day(s).
| Time | Temp. | Humidity | Pressure | Rain* | Wind** | Luminosity | Snow |
|---|---|---|---|---|---|---|---|
| 1777444620 | 11.67° C | 75% | 1359.7 hPa | 0 mm | - | 0 W/m² | - |
| 1777444318 | 12.78° C | 71% | 1359.5 hPa | 0 mm | - | 0 W/m² | - |
| 1777444014 | 12.78° C | 71% | 1359.6 hPa | 0 mm | - | 0 W/m² | - |
| 1777443710 | 12.78° C | 71% | 1359.9 hPa | 0 mm | - | 0 W/m² | - |
| 1777443410 | 12.78° C | 72% | 1359.6 hPa | 0 mm | - | 0 W/m² | - |
| 1777443108 | 12.78° C | 72% | 1359.5 hPa | 0 mm | - | 0 W/m² | - |
| 1777442805 | 12.78° C | 70% | 1359.5 hPa | 0 mm | - | 0 W/m² | - |
| 1777442501 | 13.33° C | 69% | 1359.5 hPa | 0 mm | - | 0 W/m² | - |
| 1777442196 | 12.78° C | 72% | 1359.6 hPa | 0 mm | - | 0 W/m² | - |
| 1777441893 | 12.78° C | 73% | 1359.5 hPa | 0 mm | - | 0 W/m² | - |
| 1777441588 | 12.78° C | 69% | 1359.2 hPa | 0 mm | - | 0 W/m² | - |
| 1777441285 | 13.33° C | 70% | 1359.1 hPa | 0 mm | - | 0 W/m² | - |
| 1777440984 | 12.78° C | 70% | 1359.3 hPa | 0 mm | - | 0 W/m² | - |
| 1777440681 | 12.78° C | 70% | 1359.2 hPa | 0 mm | - | 0 W/m² | - |
| 1777440376 | 13.33° C | 70% | 1359.2 hPa | 0 mm | - | 0 W/m² | - |
| 1777440074 | 13.33° C | 69% | 1359.5 hPa | 0 mm | - | 0 W/m² | - |
| 1777439769 | 13.33° C | 70% | 1359.5 hPa | 0 mm | - | 0 W/m² | - |
| 1777439465 | 13.33° C | 69% | 1359.5 hPa | 0 mm | - | 0 W/m² | - |
| 1777439160 | 13.33° C | 68% | 1359.2 hPa | 0 mm | - | 0 W/m² | - |
| 1777438858 | 13.33° C | 69% | 1359.3 hPa | 0 mm | - | 0 W/m² | - |
| 1777438554 | 13.89° C | 67% | 1359.3 hPa | 0 mm | - | 0 W/m² | - |
| 1777438251 | 13.33° C | 68% | 1359.3 hPa | 0 mm | - | 0 W/m² | - |
| 1777437946 | 13.89° C | 69% | 1359.3 hPa | 0 mm | - | 0 W/m² | - |
| 1777437643 | 13.33° C | 68% | 1359.3 hPa | 0 mm | - | 0 W/m² | - |
| 1777437146 | 14.44° C | 64% | 1359.3 hPa | 0 mm | - | 0 W/m² | - |
* Rain latest hour (hover to see other rain measurements)
** Current wind speed in m/s (hover to see current wind gust speed)